sensor_id;sensor_type;location;lat;lon;timestamp;temperature;humidity
66582;SHT31;53438;48.898;2.308;2023-07-13T03:00:44;19.81;56.41
66582;SHT31;53438;48.898;2.308;2023-07-13T03:03:11;19.77;56.45
66582;SHT31;53438;48.898;2.308;2023-07-13T03:05:40;19.67;56.89
66582;SHT31;53438;48.898;2.308;2023-07-13T03:08:05;19.33;57.88
66582;SHT31;53438;48.898;2.308;2023-07-13T03:10:32;19.51;57.30
66582;SHT31;53438;48.898;2.308;2023-07-13T03:12:57;19.64;57.05
66582;SHT31;53438;48.898;2.308;2023-07-13T03:15:23;19.74;56.54
66582;SHT31;53438;48.898;2.308;2023-07-13T03:17:48;19.87;56.12
66582;SHT31;53438;48.898;2.308;2023-07-13T03:20:14;19.94;56.01
66582;SHT31;53438;48.898;2.308;2023-07-13T03:22:40;19.99;55.99
66582;SHT31;53438;48.898;2.308;2023-07-13T03:25:05;19.54;57.19
66582;SHT31;53438;48.898;2.308;2023-07-13T03:27:31;18.89;59.02
66582;SHT31;53438;48.898;2.308;2023-07-13T03:29:56;19.10;58.54
66582;SHT31;53438;48.898;2.308;2023-07-13T03:32:21;19.02;58.98
66582;SHT31;53438;48.898;2.308;2023-07-13T03:34:47;19.39;58.21
66582;SHT31;53438;48.898;2.308;2023-07-13T03:37:12;19.51;57.77
66582;SHT31;53438;48.898;2.308;2023-07-13T03:39:38;19.61;57.59
66582;SHT31;53438;48.898;2.308;2023-07-13T03:42:03;19.50;57.83
66582;SHT31;53438;48.898;2.308;2023-07-13T03:44:28;19.56;57.70
66582;SHT31;53438;48.898;2.308;2023-07-13T03:46:54;19.16;59.39
66582;SHT31;53438;48.898;2.308;2023-07-13T03:49:19;19.45;58.79
66582;SHT31;53438;48.898;2.308;2023-07-13T03:51:45;19.41;59.04
66582;SHT31;53438;48.898;2.308;2023-07-13T03:54:10;19.19;59.73
66582;SHT31;53438;48.898;2.308;2023-07-13T03:56:35;19.36;59.42
66582;SHT31;53438;48.898;2.308;2023-07-13T03:59:01;19.20;59.51
66582;SHT31;53438;48.898;2.308;2023-07-13T04:01:27;18.86;60.86
66582;SHT31;53438;48.898;2.308;2023-07-13T04:03:53;19.30;59.85
66582;SHT31;53438;48.898;2.308;2023-07-13T04:06:23;19.50;59.36
66582;SHT31;53438;48.898;2.308;2023-07-13T04:08:52;19.56;59.41
66582;SHT31;53438;48.898;2.308;2023-07-13T04:11:23;19.57;59.49
66582;SHT31;53438;48.898;2.308;2023-07-13T04:13:49;19.74;59.08
66582;SHT31;53438;48.898;2.308;2023-07-13T04:16:15;19.75;59.20
66582;SHT31;53438;48.898;2.308;2023-07-13T04:18:41;19.79;58.90
66582;SHT31;53438;48.898;2.308;2023-07-13T04:21:07;19.92;58.68
66582;SHT31;53438;48.898;2.308;2023-07-13T04:23:34;19.53;59.92
66582;SHT31;53438;48.898;2.308;2023-07-13T04:25:59;19.51;59.95
66582;SHT31;53438;48.898;2.308;2023-07-13T04:28:25;19.36;60.31
66582;SHT31;53438;48.898;2.308;2023-07-13T04:30:51;19.58;60.03
66582;SHT31;53438;48.898;2.308;2023-07-13T04:33:17;18.92;61.89
66582;SHT31;53438;48.898;2.308;2023-07-13T04:35:47;18.95;62.10
66582;SHT31;53438;48.898;2.308;2023-07-13T04:38:13;19.02;62.00
66582;SHT31;53438;48.898;2.308;2023-07-13T04:40:40;19.26;61.45
66582;SHT31;53438;48.898;2.308;2023-07-13T04:43:05;19.37;61.04
66582;SHT31;53438;48.898;2.308;2023-07-13T04:45:30;18.79;63.03
66582;SHT31;53438;48.898;2.308;2023-07-13T04:47:56;18.55;63.79
66582;SHT31;53438;48.898;2.308;2023-07-13T04:50:22;18.89;63.00
66582;SHT31;53438;48.898;2.308;2023-07-13T04:52:50;18.95;62.63
66582;SHT31;53438;48.898;2.308;2023-07-13T04:55:16;18.85;63.10
66582;SHT31;53438;48.898;2.308;2023-07-13T04:57:41;19.09;62.69
66582;SHT31;53438;48.898;2.308;2023-07-13T05:00:07;19.09;62.78
66582;SHT31;53438;48.898;2.308;2023-07-13T05:02:33;19.31;62.19
66582;SHT31;53438;48.898;2.308;2023-07-13T05:05:00;19.23;62.67
66582;SHT31;53438;48.898;2.308;2023-07-13T05:07:26;19.43;61.95
66582;SHT31;53438;48.898;2.308;2023-07-13T05:09:52;19.60;61.54
66582;SHT31;53438;48.898;2.308;2023-07-13T05:12:18;19.41;62.12
66582;SHT31;53438;48.898;2.308;2023-07-13T05:14:43;19.56;61.88
66582;SHT31;53438;48.898;2.308;2023-07-13T05:17:09;19.61;61.73
66582;SHT31;53438;48.898;2.308;2023-07-13T05:19:34;19.41;62.38
66582;SHT31;53438;48.898;2.308;2023-07-13T05:22:00;19.20;62.53
66582;SHT31;53438;48.898;2.308;2023-07-13T05:24:25;19.23;62.83
66582;SHT31;53438;48.898;2.308;2023-07-13T05:26:51;19.15;63.22
66582;SHT31;53438;48.898;2.308;2023-07-13T05:29:16;19.09;63.25
66582;SHT31;53438;48.898;2.308;2023-07-13T05:31:41;18.96;63.85
66582;SHT31;53438;48.898;2.308;2023-07-13T05:34:07;19.29;62.98
66582;SHT31;53438;48.898;2.308;2023-07-13T05:36:32;19.47;62.11
66582;SHT31;53438;48.898;2.308;2023-07-13T05:38:57;19.12;63.44
66582;SHT31;53438;48.898;2.308;2023-07-13T05:41:23;19.31;62.71
66582;SHT31;53438;48.898;2.308;2023-07-13T05:43:48;18.96;63.20
66582;SHT31;53438;48.898;2.308;2023-07-13T05:46:14;18.84;63.94
66582;SHT31;53438;48.898;2.308;2023-07-13T05:48:40;19.12;62.90
66582;SHT31;53438;48.898;2.308;2023-07-13T05:51:05;19.16;62.54
66582;SHT31;53438;48.898;2.308;2023-07-13T05:53:30;19.34;61.97
66582;SHT31;53438;48.898;2.308;2023-07-13T05:55:56;19.10;62.26
66582;SHT31;53438;48.898;2.308;2023-07-13T05:58:21;19.40;61.81
66582;SHT31;53438;48.898;2.308;2023-07-13T06:00:47;19.17;62.44
66582;SHT31;53438;48.898;2.308;2023-07-13T06:03:14;19.31;62.26
66582;SHT31;53438;48.898;2.308;2023-07-13T06:05:39;19.02;62.66
66582;SHT31;53438;48.898;2.308;2023-07-13T06:08:07;18.61;63.84
66582;SHT31;53438;48.898;2.308;2023-07-13T06:10:33;18.95;63.34
66582;SHT31;53438;48.898;2.308;2023-07-13T06:13:00;19.10;62.72
66582;SHT31;53438;48.898;2.308;2023-07-13T06:15:25;19.02;62.84
66582;SHT31;53438;48.898;2.308;2023-07-13T06:17:51;19.26;62.56
66582;SHT31;53438;48.898;2.308;2023-07-13T06:20:16;19.02;63.27
66582;SHT31;53438;48.898;2.308;2023-07-13T06:22:41;19.34;62.54
66582;SHT31;53438;48.898;2.308;2023-07-13T06:25:07;19.58;61.78
66582;SHT31;53438;48.898;2.308;2023-07-13T06:27:33;19.02;63.66
66582;SHT31;53438;48.898;2.308;2023-07-13T06:29:58;19.12;63.47
66582;SHT31;53438;48.898;2.308;2023-07-13T06:32:24;19.49;62.44
66582;SHT31;53438;48.898;2.308;2023-07-13T06:34:49;19.51;62.65
66582;SHT31;53438;48.898;2.308;2023-07-13T06:37:16;19.26;63.15
66582;SHT31;53438;48.898;2.308;2023-07-13T06:39:42;19.51;62.52
66582;SHT31;53438;48.898;2.308;2023-07-13T06:42:07;18.96;63.85
66582;SHT31;53438;48.898;2.308;2023-07-13T06:44:33;18.91;64.33
66582;SHT31;53438;48.898;2.308;2023-07-13T06:46:58;19.15;63.91
66582;SHT31;53438;48.898;2.308;2023-07-13T06:49:23;19.43;63.03
66582;SHT31;53438;48.898;2.308;2023-07-13T06:51:48;19.50;62.43
66582;SHT31;53438;48.898;2.308;2023-07-13T06:54:14;19.75;62.20
66582;SHT31;53438;48.898;2.308;2023-07-13T06:56:39;19.89;61.84
66582;SHT31;53438;48.898;2.308;2023-07-13T06:59:05;19.51;62.98
66582;SHT31;53438;48.898;2.308;2023-07-13T07:01:30;19.68;62.48
66582;SHT31;53438;48.898;2.308;2023-07-13T07:03:55;19.16;64.71
66582;SHT31;53438;48.898;2.308;2023-07-13T07:06:22;19.37;64.22
66582;SHT31;53438;48.898;2.308;2023-07-13T07:08:51;19.57;64.04
66582;SHT31;53438;48.898;2.308;2023-07-13T07:11:22;19.68;63.73
66582;SHT31;53438;48.898;2.308;2023-07-13T07:13:48;19.81;63.24
66582;SHT31;53438;48.898;2.308;2023-07-13T07:16:14;19.77;63.58
66582;SHT31;53438;48.898;2.308;2023-07-13T07:18:40;19.75;63.31
66582;SHT31;53438;48.898;2.308;2023-07-13T07:21:05;19.94;63.16
66582;SHT31;53438;48.898;2.308;2023-07-13T07:23:31;20.25;62.04
66582;SHT31;53438;48.898;2.308;2023-07-13T07:25:56;20.22;62.31
66582;SHT31;53438;48.898;2.308;2023-07-13T07:28:22;19.97;62.10
66582;SHT31;53438;48.898;2.308;2023-07-13T07:30:48;20.04;62.70
66582;SHT31;53438;48.898;2.308;2023-07-13T07:33:14;19.95;62.73
66582;SHT31;53438;48.898;2.308;2023-07-13T07:35:40;19.84;63.25
66582;SHT31;53438;48.898;2.308;2023-07-13T07:38:05;20.05;62.65
66582;SHT31;53438;48.898;2.308;2023-07-13T07:40:31;20.04;62.78
66582;SHT31;53438;48.898;2.308;2023-07-13T07:42:57;20.04;62.53
66582;SHT31;53438;48.898;2.308;2023-07-13T07:45:22;20.47;61.79
66582;SHT31;53438;48.898;2.308;2023-07-13T07:47:48;20.93;60.64
66582;SHT31;53438;48.898;2.308;2023-07-13T07:50:14;20.39;61.97
66582;SHT31;53438;48.898;2.308;2023-07-13T07:52:39;20.57;61.92
66582;SHT31;53438;48.898;2.308;2023-07-13T07:55:06;20.11;62.98
66582;SHT31;53438;48.898;2.308;2023-07-13T07:57:32;20.59;61.81
66582;SHT31;53438;48.898;2.308;2023-07-13T07:59:57;20.98;60.84
66582;SHT31;53438;48.898;2.308;2023-07-13T08:02:24;21.11;60.40
66582;SHT31;53438;48.898;2.308;2023-07-13T08:04:50;20.46;61.65
66582;SHT31;53438;48.898;2.308;2023-07-13T08:07:15;20.52;62.01
66582;SHT31;53438;48.898;2.308;2023-07-13T08:09:41;20.40;62.02
66582;SHT31;53438;48.898;2.308;2023-07-13T08:12:06;20.79;61.63
66582;SHT31;53438;48.898;2.308;2023-07-13T08:14:32;21.32;59.99
66582;SHT31;53438;48.898;2.308;2023-07-13T08:16:57;21.18;59.73
66582;SHT31;53438;48.898;2.308;2023-07-13T08:19:23;21.61;58.83
66582;SHT31;53438;48.898;2.308;2023-07-13T08:21:49;21.20;60.14
66582;SHT31;53438;48.898;2.308;2023-07-13T08:24:14;21.62;58.82
66582;SHT31;53438;48.898;2.308;2023-07-13T08:26:40;21.11;60.23
66582;SHT31;53438;48.898;2.308;2023-07-13T08:29:05;21.20;60.12
66582;SHT31;53438;48.898;2.308;2023-07-13T08:31:30;20.80;60.94
66582;SHT31;53438;48.898;2.308;2023-07-13T08:33:56;20.84;61.06
66582;SHT31;53438;48.898;2.308;2023-07-13T08:36:22;20.77;61.17
66582;SHT31;53438;48.898;2.308;2023-07-13T08:38:47;21.17;59.71
66582;SHT31;53438;48.898;2.308;2023-07-13T08:41:15;20.62;59.49
66582;SHT31;53438;48.898;2.308;2023-07-13T08:43:42;20.79;59.54
66582;SHT31;53438;48.898;2.308;2023-07-13T08:46:16;20.79;58.78
66582;SHT31;53438;48.898;2.308;2023-07-13T08:48:50;21.04;58.04
66582;SHT31;53438;48.898;2.308;2023-07-13T08:53:47;21.75;54.76
66582;SHT31;53438;48.898;2.308;2023-07-13T08:56:18;22.07;53.71
66582;SHT31;53438;48.898;2.308;2023-07-13T08:58:45;22.13;53.43
66582;SHT31;53438;48.898;2.308;2023-07-13T09:04:17;21.85;53.73
66582;SHT31;53438;48.898;2.308;2023-07-13T09:15:26;22.17;54.15
66582;SHT31;53438;48.898;2.308;2023-07-13T09:17:55;21.65;54.72
66582;SHT31;53438;48.898;2.308;2023-07-13T09:20:35;22.02;53.98
66582;SHT31;53438;48.898;2.308;2023-07-13T09:23:04;22.16;53.08
66582;SHT31;53438;48.898;2.308;2023-07-13T09:25:34;22.10;53.24
66582;SHT31;53438;48.898;2.308;2023-07-13T09:28:11;22.24;52.16
66582;SHT31;53438;48.898;2.308;2023-07-13T09:30:56;22.29;51.99
66582;SHT31;53438;48.898;2.308;2023-07-13T09:33:23;22.27;52.04
66582;SHT31;53438;48.898;2.308;2023-07-13T09:35:49;21.92;52.60
66582;SHT31;53438;48.898;2.308;2023-07-13T09:38:19;21.49;53.36
66582;SHT31;53438;48.898;2.308;2023-07-13T09:41:01;21.69;52.91
66582;SHT31;53438;48.898;2.308;2023-07-13T09:43:28;21.54;53.02
66582;SHT31;53438;48.898;2.308;2023-07-13T09:45:55;21.52;53.23
66582;SHT31;53438;48.898;2.308;2023-07-13T09:48:20;21.59;53.56
66582;SHT31;53438;48.898;2.308;2023-07-13T09:50:46;21.63;53.24
66582;SHT31;53438;48.898;2.308;2023-07-13T09:53:17;21.73;53.52
66582;SHT31;53438;48.898;2.308;2023-07-13T09:55:45;21.90;53.09
66582;SHT31;53438;48.898;2.308;2023-07-13T09:58:23;22.06;52.37
66582;SHT31;53438;48.898;2.308;2023-07-13T10:01:01;22.10;52.30
66582;SHT31;53438;48.898;2.308;2023-07-13T10:03:32;21.99;52.68
66582;SHT31;53438;48.898;2.308;2023-07-13T10:06:18;22.18;52.53
66582;SHT31;53438;48.898;2.308;2023-07-13T10:08:48;21.72;53.27
66582;SHT31;53438;48.898;2.308;2023-07-13T10:13:51;21.97;52.66
66582;SHT31;53438;48.898;2.308;2023-07-13T10:16:19;21.81;52.82
66582;SHT31;53438;48.898;2.308;2023-07-13T10:18:56;21.90;52.71
66582;SHT31;53438;48.898;2.308;2023-07-13T10:21:27;21.83;53.18
66582;SHT31;53438;48.898;2.308;2023-07-13T10:24:02;21.89;53.05
66582;SHT31;53438;48.898;2.308;2023-07-13T10:26:32;22.02;52.11
66582;SHT31;53438;48.898;2.308;2023-07-13T10:29:01;22.07;52.30
66582;SHT31;53438;48.898;2.308;2023-07-13T10:31:30;22.03;52.56
66582;SHT31;53438;48.898;2.308;2023-07-13T10:33:56;21.93;53.07
66582;SHT31;53438;48.898;2.308;2023-07-13T10:36:40;22.02;52.85
66582;SHT31;53438;48.898;2.308;2023-07-13T10:39:06;21.99;52.90
66582;SHT31;53438;48.898;2.308;2023-07-13T10:41:38;21.62;54.19
66582;SHT31;53438;48.898;2.308;2023-07-13T10:44:18;21.81;54.07
66582;SHT31;53438;48.898;2.308;2023-07-13T10:46:45;21.96;53.48
66582;SHT31;53438;48.898;2.308;2023-07-13T10:49:11;21.99;53.04
66582;SHT31;53438;48.898;2.308;2023-07-13T10:51:37;22.04;52.85
66582;SHT31;53438;48.898;2.308;2023-07-13T10:56:42;21.63;54.01
66582;SHT31;53438;48.898;2.308;2023-07-13T10:59:23;21.82;53.55
66582;SHT31;53438;48.898;2.308;2023-07-13T11:01:55;21.89;53.50
66582;SHT31;53438;48.898;2.308;2023-07-13T11:04:22;22.00;52.85
66582;SHT31;53438;48.898;2.308;2023-07-13T11:06:50;21.88;54.02
66582;SHT31;53438;48.898;2.308;2023-07-13T11:09:36;21.92;53.75
66582;SHT31;53438;48.898;2.308;2023-07-13T11:12:25;22.06;54.50
66582;SHT31;53438;48.898;2.308;2023-07-13T11:22:46;22.03;53.89
66582;SHT31;53438;48.898;2.308;2023-07-13T11:25:30;22.16;53.43
66582;SHT31;53438;48.898;2.308;2023-07-13T11:33:28;22.21;52.71
66582;SHT31;53438;48.898;2.308;2023-07-13T11:36:05;22.27;52.21
66582;SHT31;53438;48.898;2.308;2023-07-13T11:38:42;22.50;51.73
66582;SHT31;53438;48.898;2.308;2023-07-13T11:41:17;22.32;52.09
66582;SHT31;53438;48.898;2.308;2023-07-13T11:43:45;22.45;51.82
66582;SHT31;53438;48.898;2.308;2023-07-13T11:46:20;22.55;51.44
66582;SHT31;53438;48.898;2.308;2023-07-13T11:48:47;22.64;51.27
66582;SHT31;53438;48.898;2.308;2023-07-13T11:51:22;22.55;50.61
66582;SHT31;53438;48.898;2.308;2023-07-13T11:53:50;22.76;49.44
66582;SHT31;53438;48.898;2.308;2023-07-13T11:56:18;22.91;48.92
66582;SHT31;53438;48.898;2.308;2023-07-13T11:58:44;22.78;48.83
66582;SHT31;53438;48.898;2.308;2023-07-13T12:01:26;22.99;48.44
66582;SHT31;53438;48.898;2.308;2023-07-13T12:03:52;23.02;47.54
66582;SHT31;53438;48.898;2.308;2023-07-13T12:06:30;23.22;46.77
66582;SHT31;53438;48.898;2.308;2023-07-13T12:09:11;23.46;45.89
66582;SHT31;53438;48.898;2.308;2023-07-13T12:11:42;23.59;46.08
66582;SHT31;53438;48.898;2.308;2023-07-13T12:14:18;23.49;46.21
66582;SHT31;53438;48.898;2.308;2023-07-13T12:16:45;23.43;45.87
66582;SHT31;53438;48.898;2.308;2023-07-13T12:19:23;22.87;45.36
66582;SHT31;53438;48.898;2.308;2023-07-13T12:21:52;23.03;45.01
66582;SHT31;53438;48.898;2.308;2023-07-13T12:24:20;23.03;44.51
66582;SHT31;53438;48.898;2.308;2023-07-13T12:27:02;23.12;43.82
66582;SHT31;53438;48.898;2.308;2023-07-13T12:29:29;23.30;43.34
66582;SHT31;53438;48.898;2.308;2023-07-13T12:31:55;23.33;42.99
66582;SHT31;53438;48.898;2.308;2023-07-13T12:34:23;23.36;43.59
66582;SHT31;53438;48.898;2.308;2023-07-13T12:37:01;23.42;43.43
66582;SHT31;53438;48.898;2.308;2023-07-13T12:44:41;23.12;42.43
66582;SHT31;53438;48.898;2.308;2023-07-13T12:47:12;23.54;41.95
66582;SHT31;53438;48.898;2.308;2023-07-13T12:49:42;23.59;41.40
66582;SHT31;53438;48.898;2.308;2023-07-13T12:52:21;23.71;41.64
66582;SHT31;53438;48.898;2.308;2023-07-13T12:54:55;23.50;41.03
66582;SHT31;53438;48.898;2.308;2023-07-13T12:57:23;23.78;40.59
66582;SHT31;53438;48.898;2.308;2023-07-13T12:59:52;23.78;40.76
66582;SHT31;53438;48.898;2.308;2023-07-13T13:02:30;23.84;41.06
66582;SHT31;53438;48.898;2.308;2023-07-13T13:04:56;23.80;41.18
66582;SHT31;53438;48.898;2.308;2023-07-13T13:07:24;23.73;41.90
66582;SHT31;53438;48.898;2.308;2023-07-13T13:09:49;23.84;41.02
66582;SHT31;53438;48.898;2.308;2023-07-13T13:12:19;23.94;40.80
66582;SHT31;53438;48.898;2.308;2023-07-13T13:14:45;23.91;41.16
66582;SHT31;53438;48.898;2.308;2023-07-13T13:17:19;24.04;41.12
66582;SHT31;53438;48.898;2.308;2023-07-13T13:19:46;24.28;41.27
66582;SHT31;53438;48.898;2.308;2023-07-13T13:22:12;24.02;41.47
66582;SHT31;53438;48.898;2.308;2023-07-13T13:24:38;24.00;41.37
66582;SHT31;53438;48.898;2.308;2023-07-13T13:27:04;24.22;41.61
66582;SHT31;53438;48.898;2.308;2023-07-13T13:29:32;24.36;40.68
66582;SHT31;53438;48.898;2.308;2023-07-13T13:31:58;24.53;40.75
66582;SHT31;53438;48.898;2.308;2023-07-13T13:34:25;24.42;41.13
66582;SHT31;53438;48.898;2.308;2023-07-13T13:36:52;24.53;41.25
66582;SHT31;53438;48.898;2.308;2023-07-13T13:39:25;24.63;40.50
66582;SHT31;53438;48.898;2.308;2023-07-13T13:41:53;24.75;40.59
66582;SHT31;53438;48.898;2.308;2023-07-13T13:44:20;24.41;40.82
66582;SHT31;53438;48.898;2.308;2023-07-13T13:46:48;24.53;40.57
66582;SHT31;53438;48.898;2.308;2023-07-13T13:49:17;24.68;40.42
66582;SHT31;53438;48.898;2.308;2023-07-13T13:51:44;24.69;40.35
66582;SHT31;53438;48.898;2.308;2023-07-13T13:54:12;24.66;40.61
66582;SHT31;53438;48.898;2.308;2023-07-13T13:56:37;24.62;40.26
66582;SHT31;53438;48.898;2.308;2023-07-13T13:59:05;24.75;40.05
66582;SHT31;53438;48.898;2.308;2023-07-13T14:01:30;24.80;40.02
66582;SHT31;53438;48.898;2.308;2023-07-13T14:03:56;24.52;40.74
66582;SHT31;53438;48.898;2.308;2023-07-13T14:06:21;24.55;40.75
66582;SHT31;53438;48.898;2.308;2023-07-13T14:08:46;24.70;40.84
66582;SHT31;53438;48.898;2.308;2023-07-13T14:11:17;24.80;40.19
66582;SHT31;53438;48.898;2.308;2023-07-13T14:13:45;24.91;40.22
66582;SHT31;53438;48.898;2.308;2023-07-13T14:16:15;25.09;39.96
66582;SHT31;53438;48.898;2.308;2023-07-13T14:18:43;25.10;40.15
66582;SHT31;53438;48.898;2.308;2023-07-13T14:21:18;24.52;40.38
66582;SHT31;53438;48.898;2.308;2023-07-13T14:23:47;24.53;41.26
66582;SHT31;53438;48.898;2.308;2023-07-13T14:26:21;24.61;40.98
66582;SHT31;53438;48.898;2.308;2023-07-13T14:28:49;24.70;40.73
66582;SHT31;53438;48.898;2.308;2023-07-13T14:31:16;24.51;40.93
66582;SHT31;53438;48.898;2.308;2023-07-13T14:33:42;24.72;40.79
66582;SHT31;53438;48.898;2.308;2023-07-13T14:38:59;24.35;41.44
66582;SHT31;53438;48.898;2.308;2023-07-13T14:41:26;24.25;41.62
66582;SHT31;53438;48.898;2.308;2023-07-13T14:43:52;24.28;41.92
66582;SHT31;53438;48.898;2.308;2023-07-13T14:46:28;24.26;41.78
66582;SHT31;53438;48.898;2.308;2023-07-13T14:49:01;24.43;41.60
66582;SHT31;53438;48.898;2.308;2023-07-13T14:51:29;24.31;41.73
66582;SHT31;53438;48.898;2.308;2023-07-13T14:53:54;24.36;41.89
66582;SHT31;53438;48.898;2.308;2023-07-13T14:56:19;24.47;41.38
66582;SHT31;53438;48.898;2.308;2023-07-13T14:58:45;24.56;41.42
66582;SHT31;53438;48.898;2.308;2023-07-13T15:01:14;24.17;42.08
66582;SHT31;53438;48.898;2.308;2023-07-13T15:03:46;23.84;42.33
66582;SHT31;53438;48.898;2.308;2023-07-13T15:06:12;24.01;42.04
66582;SHT31;53438;48.898;2.308;2023-07-13T15:08:38;24.07;42.32
66582;SHT31;53438;48.898;2.308;2023-07-13T15:11:06;24.25;42.16
66582;SHT31;53438;48.898;2.308;2023-07-13T15:13:32;24.32;42.08
66582;SHT31;53438;48.898;2.308;2023-07-13T15:15:57;24.43;41.99
66582;SHT31;53438;48.898;2.308;2023-07-13T15:18:25;24.52;41.99
66582;SHT31;53438;48.898;2.308;2023-07-13T15:20:51;24.26;42.50
66582;SHT31;53438;48.898;2.308;2023-07-13T15:23:22;24.55;42.16
66582;SHT31;53438;48.898;2.308;2023-07-13T15:25:48;24.65;41.87
66582;SHT31;53438;48.898;2.308;2023-07-13T15:28:15;24.62;42.15
66582;SHT31;53438;48.898;2.308;2023-07-13T15:30:42;24.52;42.41
66582;SHT31;53438;48.898;2.308;2023-07-13T15:33:16;24.56;42.32
66582;SHT31;53438;48.898;2.308;2023-07-13T15:35:43;24.68;42.36
66582;SHT31;53438;48.898;2.308;2023-07-13T15:38:19;24.24;42.97
66582;SHT31;53438;48.898;2.308;2023-07-13T15:40:46;24.52;42.77
66582;SHT31;53438;48.898;2.308;2023-07-13T15:43:13;24.61;42.44
66582;SHT31;53438;48.898;2.308;2023-07-13T15:45:40;24.51;42.48
66582;SHT31;53438;48.898;2.308;2023-07-13T15:48:18;24.59;42.68
66582;SHT31;53438;48.898;2.308;2023-07-13T15:50:51;24.49;42.78
66582;SHT31;53438;48.898;2.308;2023-07-13T15:53:26;24.65;42.66
66582;SHT31;53438;48.898;2.308;2023-07-13T15:55:53;24.55;42.39
66582;SHT31;53438;48.898;2.308;2023-07-13T15:58:19;24.61;42.54
66582;SHT31;53438;48.898;2.308;2023-07-13T16:00:45;24.53;42.77
66582;SHT31;53438;48.898;2.308;2023-07-13T16:03:11;24.62;42.64
66582;SHT31;53438;48.898;2.308;2023-07-13T16:05:37;24.66;42.73
66582;SHT31;53438;48.898;2.308;2023-07-13T16:08:05;24.66;42.71
66582;SHT31;53438;48.898;2.308;2023-07-13T16:10:33;24.72;42.00
66582;SHT31;53438;48.898;2.308;2023-07-13T16:12:59;24.70;42.08
66582;SHT31;53438;48.898;2.308;2023-07-13T16:15:25;24.68;42.24
66582;SHT31;53438;48.898;2.308;2023-07-13T16:17:51;24.66;42.28
66582;SHT31;53438;48.898;2.308;2023-07-13T16:20:17;24.49;42.72
66582;SHT31;53438;48.898;2.308;2023-07-13T16:22:48;24.56;42.90
66582;SHT31;53438;48.898;2.308;2023-07-13T16:25:24;24.43;42.95
66582;SHT31;53438;48.898;2.308;2023-07-13T16:27:52;24.49;43.12
66582;SHT31;53438;48.898;2.308;2023-07-13T16:30:20;24.17;43.61
66582;SHT31;53438;48.898;2.308;2023-07-13T16:32:52;23.98;43.91
66582;SHT31;53438;48.898;2.308;2023-07-13T16:35:19;24.11;43.73
66582;SHT31;53438;48.898;2.308;2023-07-13T16:37:45;24.22;43.40
66582;SHT31;53438;48.898;2.308;2023-07-13T16:40:37;24.26;43.40
66582;SHT31;53438;48.898;2.308;2023-07-13T16:43:03;24.29;43.39
66582;SHT31;53438;48.898;2.308;2023-07-13T16:45:30;24.29;43.45
66582;SHT31;53438;48.898;2.308;2023-07-13T16:48:00;24.26;43.41
66582;SHT31;53438;48.898;2.308;2023-07-13T16:50:32;24.21;43.48
66582;SHT31;53438;48.898;2.308;2023-07-13T16:52:59;24.12;44.08
66582;SHT31;53438;48.898;2.308;2023-07-13T16:55:26;24.01;44.16
66582;SHT31;53438;48.898;2.308;2023-07-13T16:57:56;24.14;44.10
66582;SHT31;53438;48.898;2.308;2023-07-13T17:00:29;24.00;43.67
66582;SHT31;53438;48.898;2.308;2023-07-13T17:02:56;23.96;44.32
66582;SHT31;53438;48.898;2.308;2023-07-13T17:05:31;23.94;44.25
66582;SHT31;53438;48.898;2.308;2023-07-13T17:07:58;24.12;44.31
66582;SHT31;53438;48.898;2.308;2023-07-13T17:10:24;23.96;44.90
66582;SHT31;53438;48.898;2.308;2023-07-13T17:12:54;23.94;45.32
66582;SHT31;53438;48.898;2.308;2023-07-13T17:15:21;23.77;46.14
66582;SHT31;53438;48.898;2.308;2023-07-13T17:17:48;23.81;46.45
66582;SHT31;53438;48.898;2.308;2023-07-13T17:20:23;23.70;46.58
66582;SHT31;53438;48.898;2.308;2023-07-13T17:22:51;23.53;46.98
66582;SHT31;53438;48.898;2.308;2023-07-13T17:25:17;23.75;46.72
66582;SHT31;53438;48.898;2.308;2023-07-13T17:27:43;23.62;47.03
66582;SHT31;53438;48.898;2.308;2023-07-13T17:30:17;23.66;46.99
66582;SHT31;53438;48.898;2.308;2023-07-13T17:32:44;23.70;46.94
66582;SHT31;53438;48.898;2.308;2023-07-13T17:35:28;23.50;47.06
66582;SHT31;53438;48.898;2.308;2023-07-13T17:38:00;23.38;47.40
66582;SHT31;53438;48.898;2.308;2023-07-13T17:40:26;23.54;46.91
66582;SHT31;53438;48.898;2.308;2023-07-13T17:42:53;23.60;47.07
66582;SHT31;53438;48.898;2.308;2023-07-13T17:45:26;23.39;47.76
66582;SHT31;53438;48.898;2.308;2023-07-13T17:47:53;23.38;47.78
66582;SHT31;53438;48.898;2.308;2023-07-13T17:50:25;23.46;47.75
66582;SHT31;53438;48.898;2.308;2023-07-13T17:52:57;23.39;47.87
66582;SHT31;53438;48.898;2.308;2023-07-13T17:55:23;23.45;47.63
66582;SHT31;53438;48.898;2.308;2023-07-13T17:57:49;23.53;47.36
66582;SHT31;53438;48.898;2.308;2023-07-13T18:00:19;23.47;47.34
66582;SHT31;53438;48.898;2.308;2023-07-13T18:02:58;23.67;47.16
66582;SHT31;53438;48.898;2.308;2023-07-13T18:05:26;23.83;46.91
66582;SHT31;53438;48.898;2.308;2023-07-13T18:07:53;23.77;46.38
66582;SHT31;53438;48.898;2.308;2023-07-13T18:10:20;23.80;46.58
66582;SHT31;53438;48.898;2.308;2023-07-13T18:12:52;23.93;46.58
66582;SHT31;53438;48.898;2.308;2023-07-13T18:15:23;24.02;46.34
66582;SHT31;53438;48.898;2.308;2023-07-13T18:17:50;24.02;46.44
66582;SHT31;53438;48.898;2.308;2023-07-13T18:20:17;23.98;46.39
66582;SHT31;53438;48.898;2.308;2023-07-13T18:22:43;24.02;46.15
66582;SHT31;53438;48.898;2.308;2023-07-13T18:25:18;23.88;45.47
66582;SHT31;53438;48.898;2.308;2023-07-13T18:27:44;23.94;45.66
66582;SHT31;53438;48.898;2.308;2023-07-13T18:30:14;23.90;45.57
66582;SHT31;53438;48.898;2.308;2023-07-13T18:32:43;23.70;46.56
66582;SHT31;53438;48.898;2.308;2023-07-13T18:35:21;23.75;46.29
66582;SHT31;53438;48.898;2.308;2023-07-13T18:37:51;23.80;45.89
66582;SHT31;53438;48.898;2.308;2023-07-13T18:40:18;23.93;45.74
66582;SHT31;53438;48.898;2.308;2023-07-13T18:42:44;23.96;45.07
66582;SHT31;53438;48.898;2.308;2023-07-13T18:45:12;23.93;45.05
66582;SHT31;53438;48.898;2.308;2023-07-13T18:47:40;23.97;45.00
66582;SHT31;53438;48.898;2.308;2023-07-13T18:50:20;23.71;45.66
66582;SHT31;53438;48.898;2.308;2023-07-13T18:52:48;23.64;46.28
66582;SHT31;53438;48.898;2.308;2023-07-13T18:55:18;23.57;46.65
66582;SHT31;53438;48.898;2.308;2023-07-13T18:57:44;23.46;46.82
66582;SHT31;53438;48.898;2.308;2023-07-13T19:00:11;23.53;46.87
66582;SHT31;53438;48.898;2.308;2023-07-13T19:02:37;23.43;46.71
66582;SHT31;53438;48.898;2.308;2023-07-13T19:05:05;23.33;46.62
66582;SHT31;53438;48.898;2.308;2023-07-13T19:07:31;23.38;45.80
66582;SHT31;53438;48.898;2.308;2023-07-13T19:09:58;23.57;45.46
66582;SHT31;53438;48.898;2.308;2023-07-13T19:12:26;23.57;45.11
66582;SHT31;53438;48.898;2.308;2023-07-13T19:14:54;23.36;45.37
66582;SHT31;53438;48.898;2.308;2023-07-13T19:17:20;23.36;45.47